Terminal Aerodrome Forecast
Issued by NWS Shreveport, LA

Home | Current Version | Previous Version | Text Only | Print | Product List | Glossary On
Versions: 1 2 3 4 5 6 7 8 9 10 11 12 13 14 15 16 17 18 19 20
000
FTUS44 KSHV 281100 RRA
TAFELD
TAF
KELD 281142Z 2812/0112 04009KT P6SM OVC100
     FM010200 07005KT P6SM OVC040
     FM010900 06005KT P6SM VCSH BKN025 OVC035=

USA.gov is the U.S. government's official web portal to all federal, state and local government web resources and services.